Time;durP1;ratioP1;P1;durP2;ratioP2;P2;SDS_P1;SDS_P2;PMS_P1;PMS_P2;Temp;Humidity;BMP_temperature;BMP_pressure;BME280_temperature;BME280_humidity;BME280_pressure;Samples;Min_cycle;Max_cycle;Signal;HPM_P1;HPM_P2
2022/07/18 00:00:27;;;;;;;7.07;6.38;;;19.80;88.10;;;;;;4991815;28;92444;-69
2022/07/18 00:02:54;;;;;;;6.93;5.65;;;19.80;88.30;;;;;;4974895;28;92526;-69
2022/07/18 00:05:21;;;;;;;6.40;5.50;;;19.70;88.40;;;;;;4975064;28;95548;-69
2022/07/18 00:07:48;;;;;;;5.93;5.13;;;19.70;88.50;;;;;;4975953;28;105537;-69
2022/07/18 00:10:15;;;;;;;7.40;6.70;;;19.70;88.60;;;;;;4976440;28;92615;-69
2022/07/18 00:12:42;;;;;;;7.47;6.00;;;19.60;88.70;;;;;;4958933;28;92499;-69
2022/07/18 00:15:10;;;;;;;8.32;6.60;;;19.60;88.80;;;;;;4976221;28;93275;-69
2022/07/18 00:17:37;;;;;;;8.02;7.22;;;19.50;88.90;;;;;;4974549;28;93975;-69
2022/07/18 00:20:09;;;;;;;7.28;6.57;;;19.50;89.30;;;;;;4958729;28;92949;-69
2022/07/18 00:22:36;;;;;;;7.10;6.30;;;19.50;89.50;;;;;;4991547;28;91868;-69
2022/07/18 00:25:04;;;;;;;6.28;5.60;;;19.40;89.70;;;;;;4976280;28;93410;-69
2022/07/18 00:27:31;;;;;;;8.98;5.97;;;19.40;89.90;;;;;;4974545;28;93932;-69
2022/07/18 00:29:58;;;;;;;7.82;6.57;;;19.30;90.00;;;;;;4973692;28;95501;-69
2022/07/18 00:32:25;;;;;;;7.47;6.35;;;19.30;90.20;;;;;;4991249;28;92482;-69
2022/07/18 00:34:52;;;;;;;8.82;6.22;;;19.20;90.20;;;;;;4974852;28;93241;-69
2022/07/18 00:37:19;;;;;;;9.57;6.55;;;19.20;90.30;;;;;;4973862;28;112144;-69
2022/07/18 00:39:46;;;;;;;9.48;6.60;;;19.10;90.30;;;;;;4975890;28;92425;-69
2022/07/18 00:42:12;;;;;;;9.13;6.68;;;19.10;90.30;;;;;;4975946;28;92423;-69
2022/07/18 00:44:39;;;;;;;7.63;6.63;;;19.10;90.40;;;;;;4990837;28;93127;-69
2022/07/18 00:47:06;;;;;;;10.77;7.53;;;19.00;90.50;;;;;;4976226;28;93061;-69
2022/07/18 00:49:33;;;;;;;9.93;7.82;;;19.00;90.50;;;;;;4975613;28;92343;-69
2022/07/18 00:52:00;;;;;;;8.38;6.85;;;18.90;90.50;;;;;;4974687;28;92503;-69
2022/07/18 00:54:27;;;;;;;9.57;8.20;;;18.90;90.60;;;;;;4974534;28;95666;-69
2022/07/18 00:56:54;;;;;;;9.48;8.57;;;18.80;90.70;;;;;;4974177;28;97849;-69
2022/07/18 00:59:22;;;;;;;13.88;8.50;;;18.80;90.80;;;;;;4974724;28;92502;-69
2022/07/18 01:01:49;;;;;;;9.60;7.45;;;18.80;90.90;;;;;;4975516;28;92422;-69
2022/07/18 01:04:20;;;;;;;9.02;7.32;;;18.80;90.90;;;;;;4975403;28;93334;-69
2022/07/18 01:06:48;;;;;;;10.30;7.22;;;18.70;91.00;;;;;;4975363;28;92925;-69
2022/07/18 01:09:17;;;;;;;8.23;6.97;;;18.70;91.00;;;;;;4974259;28;92448;-69
2022/07/18 01:11:46;;;;;;;10.05;8.00;;;18.70;91.10;;;;;;4974392;28;91792;-69
2022/07/18 01:14:13;;;;;;;8.68;6.65;;;18.60;91.10;;;;;;4973940;28;96035;-69
2022/07/18 01:16:40;;;;;;;8.98;8.07;;;18.60;91.10;;;;;;4973856;28;95344;-69
2022/07/18 01:19:09;;;;;;;10.07;7.43;;;18.60;91.20;;;;;;4974575;28;95348;-69
2022/07/18 01:21:37;;;;;;;9.73;8.18;;;18.50;91.20;;;;;;4975350;28;93107;-69
2022/07/18 01:24:04;;;;;;;8.48;7.28;;;18.50;91.30;;;;;;4973913;28;96005;-69
2022/07/18 01:26:31;;;;;;;9.85;6.43;;;18.50;91.40;;;;;;4973982;28;92563;-69
2022/07/18 01:28:58;;;;;;;8.82;7.03;;;18.40;91.50;;;;;;4990923;28;92611;-69
2022/07/18 01:31:25;;;;;;;9.48;7.18;;;18.40;91.50;;;;;;4973859;28;92591;-69
2022/07/18 01:33:55;;;;;;;8.63;7.47;;;18.40;91.60;;;;;;4975294;28;92495;-69
2022/07/18 01:36:22;;;;;;;8.68;6.30;;;18.40;91.60;;;;;;4974202;28;95829;-69
2022/07/18 01:38:49;;;;;;;8.05;7.25;;;18.30;91.70;;;;;;4975345;28;92442;-69
2022/07/18 01:41:16;;;;;;;9.50;7.32;;;18.30;91.80;;;;;;4975362;28;92496;-69
2022/07/18 01:43:43;;;;;;;8.07;6.97;;;18.30;91.80;;;;;;4973793;28;95661;-69
2022/07/18 01:46:11;;;;;;;9.68;7.22;;;18.20;91.90;;;;;;4973869;28;98229;-69
2022/07/18 01:48:39;;;;;;;13.25;7.28;;;18.20;91.90;;;;;;4975002;28;92352;-69
2022/07/18 01:51:10;;;;;;;8.60;7.70;;;18.20;91.90;;;;;;4974927;28;92495;-69
2022/07/18 01:53:41;;;;;;;9.48;7.65;;;18.20;91.90;;;;;;4973443;28;95728;-69
2022/07/18 01:56:12;;;;;;;8.98;7.90;;;18.20;91.90;;;;;;4993804;28;92998;-69
2022/07/18 01:58:39;;;;;;;7.75;6.93;;;18.20;91.90;;;;;;4977133;28;92965;-69
2022/07/18 02:01:06;;;;;;;9.68;7.00;;;18.10;91.90;;;;;;4978782;28;91717;-69
2022/07/18 02:03:33;;;;;;;7.15;5.97;;;18.10;91.90;;;;;;4976471;28;95289;-69
2022/07/18 02:06:00;;;;;;;8.65;7.57;;;18.10;91.90;;;;;;4976960;28;95639;-69
2022/07/18 02:08:27;;;;;;;8.98;7.45;;;18.10;91.90;;;;;;4992762;28;94839;-69
2022/07/18 02:10:54;;;;;;;8.35;6.93;;;18.10;92.00;;;;;;4976735;28;92830;-69
2022/07/18 02:13:21;;;;;;;7.28;6.32;;;18.00;92.00;;;;;;4978406;28;93275;-69
2022/07/18 02:15:48;;;;;;;9.35;8.43;;;18.00;92.00;;;;;;4976519;28;95569;-69
2022/07/18 02:18:16;;;;;;;8.60;6.72;;;18.00;92.00;;;;;;4978296;28;92424;-69
2022/07/18 02:20:43;;;;;;;8.98;7.13;;;18.00;92.00;;;;;;4978330;28;92520;-69
2022/07/18 02:23:10;;;;;;;8.27;7.30;;;18.00;92.10;;;;;;4978582;28;93174;-69
2022/07/18 02:25:37;;;;;;;8.40;7.13;;;18.00;92.10;;;;;;4978043;28;93063;-69
2022/07/18 02:28:04;;;;;;;9.73;7.10;;;17.90;92.00;;;;;;4978393;28;92469;-69
2022/07/18 02:30:31;;;;;;;8.52;6.90;;;17.90;92.10;;;;;;4978202;28;92486;-69
2022/07/18 02:32:59;;;;;;;9.05;7.60;;;17.90;92.00;;;;;;4976098;28;108252;-69
2022/07/18 02:35:26;;;;;;;7.68;6.88;;;17.90;92.00;;;;;;4978167;28;95469;-69
2022/07/18 02:37:53;;;;;;;8.93;6.60;;;17.90;92.10;;;;;;4993079;28;92620;-69
2022/07/18 02:40:20;;;;;;;7.78;6.32;;;17.80;92.00;;;;;;4978119;28;92926;-69
2022/07/18 02:42:47;;;;;;;6.97;6.28;;;17.80;92.10;;;;;;4977485;28;93254;-69
2022/07/18 02:45:14;;;;;;;8.05;6.43;;;17.80;92.20;;;;;;4977644;28;92530;-69
2022/07/18 02:47:41;;;;;;;9.80;7.28;;;17.70;92.30;;;;;;4977896;28;92474;-69
2022/07/18 02:50:09;;;;;;;7.93;6.75;;;17.70;92.30;;;;;;4993456;28;92238;-69
2022/07/18 02:52:36;;;;;;;10.45;7.50;;;17.70;92.40;;;;;;4977488;28;92466;-69
2022/07/18 02:55:03;;;;;;;8.35;7.13;;;17.70;92.40;;;;;;4976493;28;93114;-69
2022/07/18 02:57:30;;;;;;;9.32;8.35;;;17.70;92.40;;;;;;4976594;28;95380;-69
2022/07/18 02:59:57;;;;;;;8.85;6.82;;;17.70;92.50;;;;;;4977486;28;92538;-69
2022/07/18 03:02:24;;;;;;;7.75;6.75;;;17.60;92.50;;;;;;4977018;28;93291;-69
2022/07/18 03:04:51;;;;;;;8.63;7.72;;;17.60;92.50;;;;;;4977224;28;93017;-69
2022/07/18 03:07:18;;;;;;;10.13;7.10;;;17.60;92.60;;;;;;4976378;28;92925;-69
2022/07/18 03:09:45;;;;;;;9.98;8.35;;;17.60;92.60;;;;;;4992184;28;98357;-69
2022/07/18 03:12:12;;;;;;;10.38;7.95;;;17.60;92.70;;;;;;4992602;28;93328;-69
2022/07/18 03:14:39;;;;;;;9.85;7.25;;;17.60;92.70;;;;;;4960085;28;95482;-69
2022/07/18 03:17:06;;;;;;;9.32;6.97;;;17.50;92.80;;;;;;4977643;28;92599;-69
2022/07/18 03:19:33;;;;;;;11.75;7.63;;;17.50;92.80;;;;;;4976059;28;92480;-69
2022/07/18 03:22:01;;;;;;;9.55;7.60;;;17.50;92.80;;;;;;4975540;28;95587;-69
2022/07/18 03:24:28;;;;;;;9.00;7.53;;;17.50;92.80;;;;;;4977136;28;95322;-69
2022/07/18 03:26:56;;;;;;;10.88;9.00;;;17.50;92.80;;;;;;4975736;28;92462;-69
2022/07/18 03:29:23;;;;;;;8.63;7.65;;;17.40;92.80;;;;;;4975867;28;92550;-69
2022/07/18 03:31:50;;;;;;;10.23;7.45;;;17.40;92.80;;;;;;4975362;28;93111;-69
2022/07/18 03:34:18;;;;;;;8.80;7.93;;;17.40;92.80;;;;;;4959110;28;94075;-69
2022/07/18 03:36:45;;;;;;;10.77;7.95;;;17.40;92.80;;;;;;4977119;28;92378;-69
2022/07/18 03:39:12;;;;;;;8.50;7.55;;;17.40;92.70;;;;;;4977493;28;91747;-69
2022/07/18 03:41:39;;;;;;;9.82;7.97;;;17.40;92.80;;;;;;4977007;28;93222;-69
2022/07/18 03:44:06;;;;;;;10.60;8.75;;;17.50;92.80;;;;;;4975230;28;95623;-69
2022/07/18 03:46:34;;;;;;;9.38;7.18;;;17.50;92.70;;;;;;4975794;28;94893;-69
2022/07/18 03:49:01;;;;;;;8.55;7.22;;;17.50;92.70;;;;;;4976670;28;92853;-69
2022/07/18 03:51:28;;;;;;;11.25;8.52;;;17.60;92.60;;;;;;4976624;28;93992;-69
2022/07/18 03:53:55;;;;;;;8.43;7.43;;;17.60;92.50;;;;;;4976394;28;93436;-69
2022/07/18 03:56:22;;;;;;;11.13;8.65;;;17.70;92.40;;;;;;4975580;28;92791;-69
2022/07/18 03:58:49;;;;;;;9.60;7.40;;;17.70;92.30;;;;;;4975286;28;93124;-69
2022/07/18 04:01:16;;;;;;;9.48;8.40;;;17.70;92.30;;;;;;4976538;28;93137;-69
2022/07/18 04:03:43;;;;;;;9.65;7.40;;;17.70;92.10;;;;;;4975297;28;95515;-69
2022/07/18 04:06:10;;;;;;;9.45;7.57;;;17.80;92.00;;;;;;4991938;28;92580;-69
2022/07/18 04:08:37;;;;;;;10.25;9.07;;;17.80;91.80;;;;;;4975275;28;93046;-69
2022/07/18 04:11:04;;;;;;;9.70;7.78;;;17.90;91.60;;;;;;4974960;28;95646;-69
2022/07/18 04:13:31;;;;;;;10.20;8.27;;;17.90;91.50;;;;;;4974763;28;109070;-69
2022/07/18 04:15:58;;;;;;;9.50;8.00;;;18.00;91.40;;;;;;4976034;28;93000;-69
2022/07/18 04:18:25;;;;;;;9.43;7.70;;;18.10;91.20;;;;;;4976115;28;92844;-69
2022/07/18 04:20:52;;;;;;;10.10;8.98;;;18.20;90.90;;;;;;4976053;28;93342;-69
2022/07/18 04:23:19;;;;;;;11.25;8.43;;;18.30;90.60;;;;;;4958678;28;94557;-69
2022/07/18 04:25:46;;;;;;;9.70;7.70;;;18.30;90.50;;;;;;4976470;28;92432;-69
2022/07/18 04:28:14;;;;;;;11.32;7.55;;;18.30;90.40;;;;;;4976570;28;91768;-69
2022/07/18 04:30:42;;;;;;;12.48;8.20;;;18.40;90.30;;;;;;4976035;28;93190;-69
2022/07/18 04:33:11;;;;;;;9.88;7.45;;;18.40;90.10;;;;;;4975827;28;92898;-69
2022/07/18 04:35:39;;;;;;;8.57;7.32;;;18.50;90.10;;;;;;4975124;28;95016;-69
2022/07/18 04:38:08;;;;;;;14.48;7.55;;;18.50;90.20;;;;;;4976095;28;92841;-69
2022/07/18 04:40:36;;;;;;;10.55;6.80;;;18.60;90.20;;;;;;4975901;28;95826;-69
2022/07/18 04:43:03;;;;;;;8.10;7.15;;;18.60;90.10;;;;;;4974463;28;93550;-69
2022/07/18 04:45:31;;;;;;;8.32;7.30;;;18.70;89.80;;;;;;4975562;28;102359;-69
2022/07/18 04:47:58;;;;;;;9.95;7.13;;;18.70;89.50;;;;;;4975881;28;92486;-69
2022/07/18 04:50:25;;;;;;;12.20;7.00;;;18.90;89.50;;;;;;4975903;28;93156;-69
2022/07/18 04:52:52;;;;;;;8.60;6.38;;;19.00;89.10;;;;;;4976129;28;93121;-69
2022/07/18 04:55:21;;;;;;;11.02;7.45;;;19.10;88.20;;;;;;4975858;28;92488;-69
2022/07/18 04:57:49;;;;;;;9.95;6.25;;;19.20;87.50;;;;;;4975753;28;92821;-69
2022/07/18 05:00:19;;;;;;;12.25;6.00;;;19.40;86.80;;;;;;4972775;28;95629;-69
2022/07/18 05:02:49;;;;;;;13.23;6.97;;;19.50;85.80;;;;;;4974140;28;95392;-69
2022/07/18 05:05:18;;;;;;;10.60;6.50;;;19.60;85.30;;;;;;4975921;28;92371;-69
2022/07/18 05:07:47;;;;;;;10.73;6.00;;;19.70;85.10;;;;;;4975685;28;92416;-69
2022/07/18 05:10:16;;;;;;;9.52;5.72;;;19.80;84.70;;;;;;4973903;28;95722;-69
2022/07/18 05:12:45;;;;;;;8.50;6.40;;;19.90;84.20;;;;;;4975605;28;92993;-69
2022/07/18 05:15:15;;;;;;;8.45;5.97;;;20.00;83.60;;;;;;4975532;28;92480;-69
2022/07/18 05:17:43;;;;;;;10.02;6.32;;;20.10;83.10;;;;;;4974588;28;91778;-69
2022/07/18 05:20:14;;;;;;;7.72;6.15;;;20.20;82.80;;;;;;4975380;28;93142;-69
2022/07/18 05:22:41;;;;;;;7.93;6.15;;;20.30;82.40;;;;;;4974299;28;93021;-69
2022/07/18 05:25:09;;;;;;;13.77;5.97;;;20.50;81.80;;;;;;4974163;28;94869;-69
2022/07/18 05:27:37;;;;;;;9.02;5.60;;;20.60;81.50;;;;;;4990325;28;92576;-69
2022/07/18 05:30:06;;;;;;;7.28;6.53;;;20.60;81.20;;;;;;4972663;28;96024;-69
2022/07/18 05:32:33;;;;;;;6.57;5.22;;;20.70;81.60;;;;;;4973974;28;93648;-69
2022/07/18 05:35:00;;;;;;;8.80;6.90;;;20.70;80.10;;;;;;4975128;28;92549;-69
2022/07/18 05:37:27;;;;;;;8.38;5.75;;;20.80;80.10;;;;;;4973677;28;92723;-69
2022/07/18 05:39:54;;;;;;;7.75;6.32;;;20.90;80.00;;;;;;4975050;28;93250;-69
2022/07/18 05:42:21;;;;;;;6.43;5.65;;;20.90;80.00;;;;;;4990693;28;93178;-69
2022/07/18 05:45:09;;;;;;;10.80;7.38;;;21.00;80.10;;;;;;4975285;28;92499;-69
2022/07/18 05:47:36;;;;;;;8.10;6.03;;;21.00;80.10;;;;;;4975024;28;92806;-69
2022/07/18 05:50:04;;;;;;;9.88;6.25;;;21.10;79.90;;;;;;4973537;28;95624;-69
2022/07/18 05:52:31;;;;;;;9.45;7.10;;;21.20;79.40;;;;;;4973461;28;95387;-69
2022/07/18 05:54:58;;;;;;;7.97;5.97;;;21.30;79.10;;;;;;4990411;28;92457;-69
2022/07/18 05:57:26;;;;;;;8.30;5.45;;;21.50;78.80;;;;;;4974772;28;92507;-69
2022/07/18 05:59:52;;;;;;;7.22;6.20;;;21.60;78.70;;;;;;4974642;28;106304;-69
2022/07/18 06:02:19;;;;;;;7.75;6.15;;;21.70;78.20;;;;;;4974156;28;93057;-69
2022/07/18 06:04:46;;;;;;;8.93;5.78;;;21.80;78.00;;;;;;4975237;28;92486;-69
2022/07/18 06:07:33;;;;;;;7.10;5.60;;;21.90;77.60;;;;;;4975541;28;91767;-69
2022/07/18 06:10:00;;;;;;;8.68;7.60;;;22.00;77.20;;;;;;4974526;28;103912;-69
2022/07/18 06:12:30;;;;;;;7.00;6.20;;;22.00;76.70;;;;;;4956821;28;95550;-69
2022/07/18 06:14:58;;;;;;;6.93;5.25;;;22.10;76.10;;;;;;4972220;28;94859;-69
2022/07/18 06:17:25;;;;;;;7.25;5.65;;;22.20;74.70;;;;;;4974585;28;92657;-69
2022/07/18 06:19:52;;;;;;;7.75;5.90;;;22.20;74.00;;;;;;4989661;28;93328;-69
2022/07/18 06:22:20;;;;;;;7.68;4.80;;;22.30;74.00;;;;;;4989742;28;93074;-69
2022/07/18 06:24:47;;;;;;;6.88;5.15;;;22.40;73.50;;;;;;4990387;28;92544;-69
2022/07/18 06:27:14;;;;;;;6.15;5.55;;;22.50;73.40;;;;;;4974482;28;92500;-69
2022/07/18 06:29:41;;;;;;;6.85;4.75;;;22.60;72.90;;;;;;4989715;28;93253;-69
2022/07/18 06:32:08;;;;;;;6.35;4.78;;;22.80;72.50;;;;;;4973344;28;95528;-69
2022/07/18 06:34:35;;;;;;;6.70;4.47;;;22.90;72.40;;;;;;4974869;28;92496;-69
2022/07/18 06:37:01;;;;;;;7.85;5.70;;;23.00;72.20;;;;;;4973348;28;92981;-69
2022/07/18 06:39:28;;;;;;;6.90;4.65;;;23.20;72.70;;;;;;4971905;28;95695;-69
2022/07/18 06:41:55;;;;;;;7.45;4.95;;;23.30;72.00;;;;;;4992845;28;96583;-69
2022/07/18 06:44:24;;;;;;;7.50;4.70;;;23.50;71.20;;;;;;4976540;28;92551;-69
2022/07/18 06:46:54;;;;;;;6.47;4.80;;;23.60;70.70;;;;;;4993528;28;92651;-69
2022/07/18 06:49:21;;;;;;;9.30;5.78;;;23.60;70.70;;;;;;4976239;28;93225;-69
2022/07/18 06:51:48;;;;;;;6.28;5.63;;;23.80;71.10;;;;;;4977901;28;93099;-69
2022/07/18 06:54:15;;;;;;;11.43;4.72;;;23.80;69.80;;;;;;4992803;28;92558;-69
2022/07/18 06:56:42;;;;;;;9.27;5.95;;;23.90;70.10;;;;;;4993278;28;91662;-69
2022/07/18 06:59:09;;;;;;;8.50;4.78;;;24.10;70.60;;;;;;4977639;28;93252;-69
2022/07/18 07:01:36;;;;;;;9.07;5.05;;;24.20;70.00;;;;;;4976480;28;93118;-69
2022/07/18 07:04:03;;;;;;;7.30;6.05;;;24.40;69.90;;;;;;4976511;28;94867;-69
2022/07/18 07:06:30;;;;;;;6.85;4.90;;;24.50;68.30;;;;;;4976005;28;92526;-69
2022/07/18 07:08:57;;;;;;;12.93;5.45;;;24.60;68.30;;;;;;4975867;28;95932;-69
2022/07/18 07:11:23;;;;;;;6.90;4.60;;;24.60;68.60;;;;;;4975962;28;92979;-69
2022/07/18 07:13:50;;;;;;;8.38;5.95;;;24.60;68.10;;;;;;4993042;28;92484;-69
2022/07/18 07:16:17;;;;;;;9.35;5.60;;;24.50;68.00;;;;;;4977493;28;92483;-69
2022/07/18 07:18:44;;;;;;;6.10;4.75;;;24.60;68.70;;;;;;4975786;28;95706;-69
2022/07/18 07:21:11;;;;;;;9.30;4.10;;;24.60;68.60;;;;;;4976153;28;95673;-70
2022/07/18 07:23:43;;;;;;;8.13;5.03;;;24.60;68.50;;;;;;4992431;28;92486;-70
2022/07/18 07:26:10;;;;;;;6.00;3.63;;;24.60;69.10;;;;;;4975711;28;92544;-70
2022/07/18 07:28:37;;;;;;;4.82;4.07;;;24.70;68.70;;;;;;4975573;28;95736;-69
2022/07/18 07:31:05;;;;;;;7.40;3.70;;;24.70;68.50;;;;;;4975693;28;95457;-70
2022/07/18 07:33:32;;;;;;;6.78;4.05;;;24.80;67.80;;;;;;4977099;28;92508;-69
2022/07/18 07:36:00;;;;;;;5.80;3.95;;;24.80;68.00;;;;;;4975738;28;92475;-69
2022/07/18 07:38:28;;;;;;;6.38;5.55;;;24.90;68.10;;;;;;4976728;28;93014;-70
2022/07/18 07:40:56;;;;;;;7.38;5.03;;;25.00;68.60;;;;;;4976717;28;98457;-70
2022/07/18 07:43:32;;;;;;;9.10;3.58;;;25.00;68.50;;;;;;4976865;28;92908;-70
2022/07/18 07:45:59;;;;;;;5.47;3.58;;;25.10;68.50;;;;;;4991751;28;92246;-70
2022/07/18 07:48:26;;;;;;;4.70;4.35;;;25.20;68.40;;;;;;4976285;28;100647;-69
2022/07/18 07:50:53;;;;;;;5.10;3.50;;;25.30;68.10;;;;;;4976473;28;92461;-69
2022/07/18 07:53:21;;;;;;;10.48;4.43;;;25.40;67.50;;;;;;4973447;28;94822;-71
2022/07/18 07:55:48;;;;;;;4.90;3.47;;;25.50;67.40;;;;;;4976978;28;93069;-70
2022/07/18 07:58:15;;;;;;;6.60;4.45;;;25.70;66.80;;;;;;4976676;28;93160;-70
2022/07/18 08:01:02;;;;;;;5.60;3.15;;;25.90;66.50;;;;;;4989340;28;97569;-70
2022/07/18 08:03:50;;;;;;;7.78;3.85;;;26.20;65.70;;;;;;4969190;28;92594;-70
2022/07/18 08:06:20;;;;;;;5.38;3.13;;;26.50;65.50;;;;;;4974931;28;92512;-69
2022/07/18 08:08:47;;;;;;;4.25;2.72;;;26.90;64.30;;;;;;4976645;28;93426;-70
2022/07/18 08:11:14;;;;;;;7.10;3.33;;;27.10;62.50;;;;;;4992045;28;93045;-70
2022/07/18 08:13:53;;;;;;;3.95;2.80;;;27.40;62.60;;;;;;4976195;28;92450;-70
2022/07/18 08:16:21;;;;;;;5.35;3.97;;;28.00;62.00;;;;;;4991238;28;92537;-70
2022/07/18 08:18:48;;;;;;;4.35;3.05;;;28.80;61.10;;;;;;4973876;28;95807;-70
2022/07/18 08:21:15;;;;;;;4.32;3.10;;;29.90;59.20;;;;;;4958667;28;98154;-71
2022/07/18 08:23:43;;;;;;;4.03;3.55;;;31.10;56.90;;;;;;4975169;28;92452;-71
2022/07/18 08:26:09;;;;;;;5.03;2.83;;;32.30;54.90;;;;;;4975427;28;92507;-71
2022/07/18 08:28:36;;;;;;;4.68;2.97;;;33.20;52.30;;;;;;4991190;28;93218;-71
2022/07/18 08:31:03;;;;;;;2.30;2.10;;;33.90;50.40;;;;;;4991587;28;92911;-71
2022/07/18 08:33:30;;;;;;;5.07;2.33;;;34.30;48.80;;;;;;4974760;28;92417;-71
2022/07/18 08:35:57;;;;;;;6.80;3.13;;;34.50;47.90;;;;;;4976666;28;92122;-71
2022/07/18 08:38:24;;;;;;;3.17;2.15;;;34.70;47.40;;;;;;4975929;28;93204;-71
2022/07/18 08:40:53;;;;;;;3.33;2.63;;;34.70;46.60;;;;;;4976115;28;92958;-70
2022/07/18 08:43:20;;;;;;;2.97;2.53;;;34.80;46.60;;;;;;4973572;28;94828;-70
2022/07/18 08:45:55;;;;;;;4.25;3.38;;;34.90;46.60;;;;;;4990705;28;96950;-71
2022/07/18 08:48:28;;;;;;;4.63;2.70;;;35.20;45.20;;;;;;4974523;28;95009;-71
2022/07/18 08:51:01;;;;;;;3.95;2.20;;;35.30;45.40;;;;;;4974558;28;94227;-70
2022/07/18 08:53:29;;;;;;;5.22;2.80;;;35.50;44.20;;;;;;4975784;28;92372;-71
2022/07/18 08:56:05;;;;;;;3.90;2.40;;;35.70;43.90;;;;;;4991337;28;92479;-71
2022/07/18 08:58:45;;;;;;;2.83;2.33;;;36.10;42.90;;;;;;4974460;28;93329;-71
2022/07/18 09:01:13;;;;;;;4.03;2.30;;;36.50;42.80;;;;;;4990828;28;106284;-70
2022/07/18 09:03:40;;;;;;;2.15;1.90;;;37.00;41.20;;;;;;4975165;28;92691;-71
2022/07/18 09:06:10;;;;;;;4.28;2.10;;;37.50;39.80;;;;;;4974228;28;92547;-71
2022/07/18 09:08:38;;;;;;;4.00;3.25;;;37.90;38.80;;;;;;4973081;28;98210;-71
2022/07/18 09:11:10;;;;;;;3.80;2.05;;;38.20;38.50;;;;;;4990644;28;95387;-71
2022/07/18 09:13:57;;;;;;;3.13;2.78;;;38.50;37.50;;;;;;4976316;28;93400;-71
2022/07/18 09:16:24;;;;;;;4.53;2.50;;;38.40;37.70;;;;;;4990805;28;92570;-71
2022/07/18 09:18:51;;;;;;;2.92;2.60;;;38.40;37.40;;;;;;4975336;28;93349;-71
2022/07/18 09:21:23;;;;;;;2.90;1.95;;;38.20;37.40;;;;;;4990804;28;92498;-71
2022/07/18 09:23:53;;;;;;;3.33;2.97;;;37.90;37.00;;;;;;4975810;28;92946;-71
2022/07/18 09:26:40;;;;;;;4.13;2.13;;;37.50;37.00;;;;;;4975885;28;91714;-71
2022/07/18 09:29:08;;;;;;;3.35;2.85;;;37.10;36.80;;;;;;4974627;28;93331;-70
2022/07/18 09:31:54;;;;;;;3.40;2.60;;;36.50;37.40;;;;;;4975162;28;93074;-70
2022/07/18 09:34:39;;;;;;;3.75;2.40;;;36.20;38.00;;;;;;4973234;28;94837;-70
2022/07/18 09:37:11;;;;;;;4.55;1.92;;;35.90;38.40;;;;;;4975683;28;92508;-71
2022/07/18 09:39:38;;;;;;;4.65;3.25;;;35.50;39.00;;;;;;4973485;28;97578;-70
2022/07/18 09:42:16;;;;;;;3.90;1.70;;;35.20;39.20;;;;;;4975159;28;93056;-70
2022/07/18 09:44:59;;;;;;;4.57;2.60;;;35.10;39.30;;;;;;4975490;28;92432;-71
2022/07/18 09:47:26;;;;;;;2.67;1.80;;;35.00;39.40;;;;;;4974117;28;92861;-70
2022/07/18 09:49:54;;;;;;;3.20;2.28;;;34.70;40.00;;;;;;4973502;28;93185;-71
2022/07/18 09:52:22;;;;;;;3.47;2.20;;;34.60;40.00;;;;;;4975476;28;92833;-70
2022/07/18 09:54:49;;;;;;;3.65;1.60;;;34.50;40.10;;;;;;4975036;28;92461;-71
2022/07/18 09:57:26;;;;;;;3.65;2.95;;;34.40;40.20;;;;;;4975314;28;92471;-70
2022/07/18 09:59:54;;;;;;;4.65;2.42;;;34.40;40.20;;;;;;4972688;28;95392;-70
2022/07/18 10:02:22;;;;;;;1.83;1.70;;;34.20;40.20;;;;;;4974098;28;95595;-70
2022/07/18 10:04:50;;;;;;;2.67;2.30;;;34.10;39.90;;;;;;4973620;28;92943;-71
2022/07/18 10:07:17;;;;;;;4.47;1.92;;;34.10;40.20;;;;;;4990164;28;92563;-70
2022/07/18 10:09:45;;;;;;;7.68;3.25;;;34.00;40.40;;;;;;4973590;28;93263;-70
2022/07/18 10:12:16;;;;;;;3.53;2.17;;;33.90;41.00;;;;;;4973501;28;95627;-70
2022/07/18 10:14:44;;;;;;;3.90;2.25;;;33.90;40.90;;;;;;4973980;28;92491;-71
2022/07/18 10:17:11;;;;;;;4.85;1.88;;;33.80;41.20;;;;;;4978215;28;107522;-70
2022/07/18 10:19:38;;;;;;;4.22;3.00;;;33.70;41.70;;;;;;4978112;28;93257;-70
2022/07/18 10:22:07;;;;;;;3.60;2.55;;;33.70;42.30;;;;;;4976914;28;93048;-70
2022/07/18 10:24:40;;;;;;;3.97;2.47;;;33.60;41.60;;;;;;4977272;28;94880;-70
2022/07/18 10:27:19;;;;;;;3.08;2.45;;;33.60;41.20;;;;;;4976972;28;92488;-70
2022/07/18 10:30:08;;;;;;;4.30;3.00;;;33.60;41.00;;;;;;4977967;28;93177;-70
2022/07/18 10:32:35;;;;;;;4.25;2.00;;;33.50;40.10;;;;;;4976604;28;94076;-70
2022/07/18 10:35:02;;;;;;;3.38;2.95;;;33.30;40.40;;;;;;4978213;28;92559;-70
2022/07/18 10:37:35;;;;;;;3.60;2.58;;;33.30;40.70;;;;;;4978153;28;93124;-70
2022/07/18 10:40:22;;;;;;;;;;;33.20;40.40;;;;;;4976756;28;95739;-71
2022/07/18 10:43:27;;;;;;;5.68;2.00;;;33.00;40.40;;;;;;4977679;28;95225;-71
2022/07/18 10:45:54;;;;;;;4.13;2.53;;;32.90;41.10;;;;;;4978118;28;92471;-71
2022/07/18 10:48:33;;;;;;;6.38;2.42;;;32.80;41.20;;;;;;4978138;28;93102;-71
2022/07/18 10:51:11;;;;;;;4.47;2.60;;;32.90;41.20;;;;;;4974961;28;95603;-71
2022/07/18 10:53:53;;;;;;;6.03;1.90;;;32.90;40.80;;;;;;4977638;28;95407;-71
2022/07/18 10:56:35;;;;;;;5.50;2.50;;;32.90;39.60;;;;;;4976694;28;92583;-71
2022/07/18 10:59:20;;;;;;;4.40;2.23;;;32.80;40.50;;;;;;4977578;28;92407;-71
2022/07/18 11:01:53;;;;;;;4.40;3.17;;;32.90;40.60;;;;;;4977658;28;92457;-71
2022/07/18 11:04:27;;;;;;;5.18;2.72;;;32.90;40.40;;;;;;4977537;28;92927;-71
2022/07/18 11:07:13;;;;;;;5.03;3.33;;;32.90;40.00;;;;;;4977355;28;92498;-71
2022/07/18 11:09:41;;;;;;;4.45;2.53;;;32.90;40.10;;;;;;4976602;28;91784;-71
2022/07/18 11:12:28;;;;;;;3.92;2.80;;;32.80;39.60;;;;;;4977485;28;93208;-71
2022/07/18 11:15:14;;;;;;;5.72;3.58;;;32.80;39.50;;;;;;4976109;28;92948;-70
2022/07/18 11:18:00;;;;;;;4.00;3.50;;;32.80;38.80;;;;;;4991518;28;94933;-71
2022/07/18 11:20:42;;;;;;;5.53;3.17;;;32.70;40.10;;;;;;4977282;28;92540;-71
2022/07/18 11:23:24;;;;;;;4.78;3.17;;;32.70;39.10;;;;;;4975716;28;95949;-70
2022/07/18 11:25:56;;;;;;;3.22;2.92;;;32.80;38.90;;;;;;4976469;28;92894;-71
2022/07/18 11:28:26;;;;;;;4.28;2.63;;;32.80;39.10;;;;;;4975353;28;92525;-70
2022/07/18 11:31:00;;;;;;;4.40;3.10;;;32.80;39.00;;;;;;4975734;28;92456;-71
2022/07/18 11:33:30;;;;;;;4.35;3.17;;;32.90;38.60;;;;;;4977149;28;93179;-70
2022/07/18 11:36:05;;;;;;;5.70;3.92;;;32.90;38.80;;;;;;4975889;28;93306;-70
2022/07/18 11:38:32;;;;;;;4.22;3.28;;;33.00;38.30;;;;;;4977480;28;92435;-71
2022/07/18 11:40:59;;;;;;;4.38;3.97;;;33.00;39.20;;;;;;4975742;28;92550;-71
2022/07/18 11:43:26;;;;;;;3.75;3.42;;;33.00;38.90;;;;;;4975661;28;95624;-71
2022/07/18 11:46:00;;;;;;;4.35;3.20;;;33.00;38.50;;;;;;4976549;28;95455;-71
2022/07/18 11:48:28;;;;;;;5.70;3.30;;;32.90;38.40;;;;;;4976895;28;92441;-70
2022/07/18 11:50:55;;;;;;;6.35;3.15;;;32.90;38.70;;;;;;4976665;28;92689;-71
2022/07/18 11:53:22;;;;;;;3.58;3.28;;;32.90;39.10;;;;;;4975037;28;106411;-71
2022/07/18 11:55:49;;;;;;;3.92;3.60;;;32.90;38.50;;;;;;4974983;28;96060;-71
2022/07/18 11:58:17;;;;;;;4.85;3.45;;;32.90;38.90;;;;;;4976931;28;92475;-70
2022/07/18 12:00:46;;;;;;;4.85;4.45;;;32.90;38.20;;;;;;4975867;28;91749;-70
2022/07/18 12:03:16;;;;;;;6.55;3.80;;;33.00;37.70;;;;;;4975788;28;93295;-71
2022/07/18 12:05:46;;;;;;;5.22;3.88;;;33.10;38.60;;;;;;4975426;28;92982;-71
2022/07/18 12:08:26;;;;;;;5.32;4.13;;;33.20;37.90;;;;;;4975094;28;94902;-70
2022/07/18 12:11:03;;;;;;;4.10;3.70;;;33.40;37.00;;;;;;4976525;28;92400;-71
2022/07/18 12:13:57;;;;;;;5.30;4.38;;;33.40;37.50;;;;;;4975146;28;93335;-71
2022/07/18 12:16:49;;;;;;;5.45;4.90;;;33.40;36.80;;;;;;4991048;28;93068;-71
2022/07/18 12:19:24;;;;;;;5.05;4.55;;;33.50;37.20;;;;;;4976849;28;92495;-71
2022/07/18 12:22:13;;;;;;;8.70;4.00;;;33.40;37.40;;;;;;4976716;28;93192;-71
2022/07/18 12:24:49;;;;;;;3.70;3.40;;;33.40;37.20;;;;;;4975282;28;93140;-71
2022/07/18 12:27:23;;;;;;;4.55;3.80;;;33.50;37.10;;;;;;4976775;28;93062;-71
2022/07/18 12:30:11;;;;;;;4.40;4.00;;;33.50;37.10;;;;;;4975128;28;92447;-71
2022/07/18 12:32:45;;;;;;;6.22;4.13;;;33.50;36.90;;;;;;4974996;28;92488;-71
2022/07/18 12:35:31;;;;;;;6.55;3.60;;;33.50;37.20;;;;;;4973419;28;98367;-71
2022/07/18 12:38:13;;;;;;;4.55;3.67;;;33.50;37.40;;;;;;4974434;28;95661;-71
2022/07/18 12:40:44;;;;;;;5.00;4.57;;;33.50;37.70;;;;;;4976540;28;92871;-71
2022/07/18 12:43:16;;;;;;;4.50;3.75;;;33.40;37.40;;;;;;4975053;28;93029;-71
2022/07/18 12:45:43;;;;;;;4.30;3.90;;;33.50;37.40;;;;;;4975854;28;93315;-71
2022/07/18 12:48:12;;;;;;;4.95;3.92;;;33.50;38.10;;;;;;4990868;28;92644;-71
2022/07/18 12:50:40;;;;;;;5.03;4.63;;;33.60;37.80;;;;;;4976127;28;92854;-71
2022/07/18 12:53:07;;;;;;;4.30;3.47;;;33.70;37.60;;;;;;4974654;28;91776;-71
2022/07/18 12:55:35;;;;;;;4.10;3.70;;;33.70;36.40;;;;;;4975679;28;93275;-71
2022/07/18 12:58:03;;;;;;;4.70;3.58;;;33.70;37.60;;;;;;4973376;28;109705;-71